createdAt,value
2018-01-19T00:00:15.002Z,77.22
2018-01-19T00:01:15.464Z,77.20
2018-01-19T00:03:16.403Z,77.16
2018-01-19T00:04:16.871Z,77.13
2018-01-19T00:05:17.341Z,77.11
2018-01-19T00:06:17.807Z,77.06
2018-01-19T00:07:18.274Z,77.04
2018-01-19T00:08:18.745Z,76.97
2018-01-19T00:09:19.212Z,76.89
2018-01-19T00:10:19.680Z,76.85
2018-01-19T00:11:20.147Z,76.85
2018-01-19T00:12:20.662Z,76.85
2018-01-19T00:13:21.084Z,76.80
2018-01-19T00:14:21.556Z,76.80
2018-01-19T00:15:22.018Z,76.83
2018-01-19T00:16:22.486Z,76.85
2018-01-19T00:17:22.954Z,76.82
2018-01-19T00:19:23.889Z,76.78
2018-01-19T00:20:24.358Z,76.78
2018-01-19T00:21:24.825Z,76.76
2018-01-19T00:22:25.293Z,76.76
2018-01-19T00:23:25.758Z,76.80
2018-01-19T00:24:26.230Z,76.94
2018-01-19T00:25:26.699Z,77.09
2018-01-19T00:26:27.167Z,77.18
2018-01-19T00:28:28.103Z,77.23
2018-01-19T00:29:28.569Z,77.25
2018-01-19T00:30:29.033Z,77.23
2018-01-19T00:31:29.504Z,77.18
2018-01-19T00:32:29.973Z,77.16
2018-01-19T00:33:30.440Z,77.18
2018-01-19T00:34:30.904Z,77.23
2018-01-19T00:35:31.377Z,77.28
2018-01-19T00:36:31.848Z,77.35
2018-01-19T00:37:32.313Z,77.32
2018-01-19T00:38:32.781Z,77.30
2018-01-19T00:39:33.251Z,77.30
2018-01-19T00:40:33.715Z,77.35
2018-01-19T00:41:34.181Z,77.35
2018-01-19T00:42:34.651Z,77.37
2018-01-19T00:43:35.121Z,77.32
2018-01-19T00:44:35.588Z,77.30
2018-01-19T00:45:36.051Z,77.23
2018-01-19T00:46:36.523Z,77.23
2018-01-19T00:47:36.990Z,77.23
2018-01-19T00:48:37.458Z,77.21
2018-01-19T00:49:37.927Z,77.21
2018-01-19T00:50:38.394Z,77.23
2018-01-19T00:51:38.862Z,77.28
2018-01-19T00:52:39.325Z,77.23
2018-01-19T00:53:39.798Z,77.23
2018-01-19T00:54:40.266Z,77.26
2018-01-19T00:56:41.203Z,77.37
2018-01-19T00:58:42.139Z,77.45
2018-01-19T00:59:42.605Z,77.45
2018-01-19T01:00:43.074Z,77.42
2018-01-19T01:01:43.542Z,77.42
2018-01-19T01:02:44.011Z,77.45
2018-01-19T01:03:44.473Z,77.49
2018-01-19T01:04:44.946Z,77.56
2018-01-19T01:05:45.414Z,77.59
2018-01-19T01:06:45.880Z,77.58
2018-01-19T01:07:46.348Z,77.61
2018-01-19T01:08:46.817Z,77.66
2018-01-19T01:09:47.285Z,77.66
2018-01-19T01:10:47.749Z,77.63
2018-01-19T01:11:48.220Z,77.59
2018-01-19T01:13:49.155Z,77.47
2018-01-19T01:14:49.618Z,77.47
2018-01-19T01:15:50.091Z,77.45
2018-01-19T01:16:50.559Z,77.40
2018-01-19T01:17:51.029Z,77.40
2018-01-19T01:18:51.495Z,77.45
2018-01-19T01:20:52.432Z,77.54
2018-01-19T01:21:52.898Z,77.61
2018-01-19T01:22:53.418Z,77.67
2018-01-19T01:23:53.836Z,77.71
2018-01-19T01:24:54.302Z,77.80
2018-01-19T01:25:54.766Z,77.90
2018-01-19T01:26:55.239Z,77.97
2018-01-19T01:27:55.706Z,78.06
2018-01-19T01:29:56.644Z,77.94
2018-01-19T01:31:57.578Z,77.76
2018-01-19T01:32:58.042Z,77.66
2018-01-19T01:34:58.986Z,77.50
2018-01-19T01:35:59.449Z,77.43
2018-01-19T01:36:59.912Z,77.34
2018-01-19T01:38:00.387Z,77.25
2018-01-19T01:39:00.854Z,77.17
2018-01-19T01:40:01.323Z,77.06
2018-01-19T01:41:01.791Z,76.96
2018-01-19T01:42:02.257Z,76.91
2018-01-19T01:43:02.725Z,76.82
2018-01-19T01:44:03.188Z,76.79
2018-01-19T01:45:03.662Z,76.77
2018-01-19T01:46:04.130Z,76.75
2018-01-19T01:47:04.596Z,76.67
2018-01-19T01:48:05.063Z,76.72
2018-01-19T01:49:05.531Z,76.67
2018-01-19T01:50:06.001Z,76.65
2018-01-19T01:51:06.470Z,76.63
2018-01-19T01:52:06.971Z,76.60
2018-01-19T01:53:18.787Z,76.58
2018-01-19T01:54:07.871Z,76.56
2018-01-19T01:55:08.336Z,76.58
2018-01-19T01:56:08.806Z,76.58
2018-01-19T01:57:09.274Z,76.58
2018-01-19T01:58:09.744Z,76.62
2018-01-19T01:59:10.211Z,76.63
2018-01-19T02:00:10.679Z,76.65
2018-01-19T02:01:11.146Z,76.67
2018-01-19T02:02:11.612Z,76.62
2018-01-19T02:03:12.081Z,76.62
2018-01-19T02:04:12.550Z,76.60
2018-01-19T02:05:13.021Z,76.60
2018-01-19T02:06:13.482Z,76.60
2018-01-19T02:08:14.422Z,76.58
2018-01-19T02:09:14.889Z,76.58
2018-01-19T02:10:15.359Z,76.56
2018-01-19T02:11:15.824Z,76.51
2018-01-19T02:12:16.294Z,76.49
2018-01-19T02:13:16.757Z,76.46
2018-01-19T02:14:17.230Z,76.48
2018-01-19T02:15:17.696Z,76.44
2018-01-19T02:16:18.164Z,76.49
2018-01-19T02:17:18.629Z,76.49
2018-01-19T02:18:30.833Z,76.53
2018-01-19T02:19:19.569Z,76.53
2018-01-19T02:20:20.038Z,76.53
2018-01-19T02:21:20.504Z,76.51
2018-01-19T02:22:20.978Z,76.49
2018-01-19T02:24:21.903Z,76.49
2018-01-19T02:25:22.373Z,76.51
2018-01-19T02:26:22.840Z,76.51
2018-01-19T02:27:23.308Z,76.53
2018-01-19T02:28:23.780Z,76.58
2018-01-19T02:29:24.246Z,76.58
2018-01-19T02:30:24.714Z,76.58
2018-01-19T02:31:25.181Z,76.54
2018-01-19T02:32:25.649Z,76.49
2018-01-19T02:33:26.118Z,76.44
2018-01-19T02:34:26.585Z,76.41
2018-01-19T02:35:27.051Z,76.37
2018-01-19T02:36:27.521Z,76.30
2018-01-19T02:37:27.990Z,76.25
2018-01-19T02:38:28.456Z,76.20
2018-01-19T02:39:28.927Z,76.15
2018-01-19T02:40:29.392Z,76.11
2018-01-19T02:41:29.860Z,76.06
2018-01-19T02:42:30.328Z,76.04
2018-01-19T02:43:30.796Z,76.01
2018-01-19T02:44:31.264Z,75.94
2018-01-19T02:45:31.731Z,75.92
2018-01-19T02:46:32.203Z,75.87
2018-01-19T02:47:32.666Z,75.82
2018-01-19T02:48:33.138Z,75.82
2018-01-19T02:49:33.610Z,75.77
2018-01-19T02:50:34.073Z,75.77
2018-01-19T02:51:34.539Z,75.81
2018-01-19T02:52:35.010Z,75.84
2018-01-19T02:53:35.475Z,75.84
2018-01-19T02:54:35.946Z,75.82
2018-01-19T02:55:36.415Z,75.82
2018-01-19T02:56:36.881Z,75.79
2018-01-19T02:57:37.348Z,75.76
2018-01-19T02:58:37.815Z,75.76
2018-01-19T02:59:38.284Z,75.77
2018-01-19T03:00:38.751Z,75.77
2018-01-19T03:01:39.219Z,75.72
2018-01-19T03:02:39.688Z,75.72
2018-01-19T03:03:40.159Z,75.67
2018-01-19T03:05:41.095Z,75.50
2018-01-19T03:06:41.565Z,75.43
2018-01-19T03:07:42.028Z,75.39
2018-01-19T03:08:42.500Z,75.38
2018-01-19T03:09:42.968Z,75.33
2018-01-19T03:10:43.437Z,75.28
2018-01-19T03:11:43.904Z,75.24
2018-01-19T03:12:44.371Z,75.21
2018-01-19T03:13:44.837Z,75.19
2018-01-19T03:14:45.310Z,75.21
2018-01-19T03:15:45.783Z,75.16
2018-01-19T03:17:46.712Z,75.20
2018-01-19T03:18:47.181Z,75.23
2018-01-19T03:19:47.647Z,75.38
2018-01-19T03:20:48.111Z,75.50
2018-01-19T03:21:48.586Z,75.59
2018-01-19T03:22:49.052Z,75.73
2018-01-19T03:23:49.521Z,75.85
2018-01-19T03:24:49.989Z,75.95
2018-01-19T03:26:50.925Z,76.18
2018-01-19T03:27:51.394Z,76.27
2018-01-19T03:28:51.862Z,76.30
2018-01-19T03:29:52.332Z,76.28
2018-01-19T03:30:52.799Z,76.23
2018-01-19T03:31:53.263Z,76.18
2018-01-19T03:33:54.195Z,76.06
2018-01-19T03:36:55.603Z,75.96
2018-01-19T03:37:56.075Z,75.99
2018-01-19T03:39:57.009Z,76.01
2018-01-19T03:40:57.472Z,76.01
2018-01-19T03:42:58.411Z,76.03
2018-01-19T03:43:58.878Z,76.03
2018-01-19T03:44:59.346Z,76.05
2018-01-19T03:45:59.815Z,76.13
2018-01-19T03:47:00.284Z,76.13
2018-01-19T03:49:01.219Z,76.10
2018-01-19T03:50:01.688Z,76.08
2018-01-19T03:51:02.155Z,76.03
2018-01-19T03:52:02.623Z,76.03
2018-01-19T03:54:03.559Z,75.98
2018-01-19T03:55:04.022Z,75.96
2018-01-19T03:56:04.494Z,75.95
2018-01-19T03:57:04.961Z,75.93
2018-01-19T03:58:16.914Z,75.98
2018-01-19T04:00:06.365Z,76.12
2018-01-19T04:01:06.833Z,76.12
2018-01-19T04:02:07.296Z,76.10
2018-01-19T04:03:07.770Z,76.05
2018-01-19T04:04:08.233Z,76.00
2018-01-19T04:05:08.706Z,75.88
2018-01-19T04:06:09.176Z,75.81
2018-01-19T04:07:09.640Z,75.71
2018-01-19T04:08:10.109Z,75.64
2018-01-19T04:09:10.578Z,75.59
2018-01-19T04:10:11.045Z,75.49
2018-01-19T04:11:11.514Z,75.45
2018-01-19T04:12:11.981Z,75.37
2018-01-19T04:13:12.448Z,75.32
2018-01-19T04:14:12.916Z,75.27
2018-01-19T04:15:13.380Z,75.23
2018-01-19T04:17:14.322Z,75.13
2018-01-19T04:18:26.931Z,75.06
2018-01-19T04:21:16.193Z,74.86
2018-01-19T04:22:16.657Z,74.81
2018-01-19T04:23:28.915Z,74.81
2018-01-19T04:24:17.597Z,74.76
2018-01-19T04:25:18.059Z,74.73
2018-01-19T04:27:19.000Z,74.66
2018-01-19T04:28:19.468Z,74.66
2018-01-19T04:29:19.937Z,74.61
2018-01-19T04:30:20.402Z,74.56
2018-01-19T04:31:20.870Z,74.54
2018-01-19T04:32:21.335Z,74.54
2018-01-19T04:33:21.805Z,74.46
2018-01-19T04:34:22.276Z,74.44
2018-01-19T04:35:22.737Z,74.48
2018-01-19T04:37:23.676Z,74.58
2018-01-19T04:38:35.932Z,74.58
2018-01-19T04:39:24.608Z,74.60
2018-01-19T04:40:25.080Z,74.70
2018-01-19T04:41:25.550Z,74.72
2018-01-19T04:42:26.016Z,74.79
2018-01-19T04:43:26.480Z,74.93
2018-01-19T04:44:26.951Z,75.07
2018-01-19T04:45:27.419Z,75.36
2018-01-19T04:46:27.889Z,75.55
2018-01-19T04:47:28.354Z,75.53
2018-01-19T04:48:28.822Z,75.55
2018-01-19T04:49:29.289Z,75.57
2018-01-19T04:50:29.759Z,75.53
2018-01-19T04:51:30.227Z,75.48
2018-01-19T04:52:30.688Z,75.48
2018-01-19T04:53:42.949Z,75.41
2018-01-19T04:54:31.630Z,75.45
2018-01-19T04:55:32.096Z,75.38
2018-01-19T04:56:32.565Z,75.41
2018-01-19T04:57:33.029Z,75.45
2018-01-19T04:58:33.500Z,75.43
2018-01-19T04:59:33.968Z,75.45
2018-01-19T05:00:34.437Z,75.43
2018-01-19T05:01:34.898Z,75.47
2018-01-19T05:02:35.371Z,75.50
2018-01-19T05:04:36.306Z,75.40
2018-01-19T05:05:36.775Z,75.47
2018-01-19T05:06:37.243Z,75.43
2018-01-19T05:07:37.712Z,75.40
2018-01-19T05:08:38.171Z,75.38
2018-01-19T05:09:38.645Z,75.38
2018-01-19T05:10:39.115Z,75.38
2018-01-19T05:11:39.581Z,75.35
2018-01-19T05:12:40.048Z,75.33
2018-01-19T05:13:40.516Z,75.33
2018-01-19T05:14:40.990Z,75.28
2018-01-19T05:16:41.915Z,75.25
2018-01-19T05:17:42.389Z,75.32
2018-01-19T05:18:42.849Z,75.39
2018-01-19T05:19:43.322Z,75.70
2018-01-19T05:20:43.790Z,75.66
2018-01-19T05:21:44.291Z,75.61
2018-01-19T05:22:44.727Z,75.54
2018-01-19T05:23:45.188Z,75.46
2018-01-19T05:24:45.662Z,75.39
2018-01-19T05:25:46.129Z,75.32
2018-01-19T05:26:46.598Z,75.29
2018-01-19T05:27:47.064Z,75.20
2018-01-19T05:28:47.533Z,75.15
2018-01-19T05:29:47.999Z,75.08
2018-01-19T05:30:48.468Z,75.01
2018-01-19T05:31:48.935Z,74.96
2018-01-19T05:32:49.399Z,74.89
2018-01-19T05:33:49.872Z,74.81
2018-01-19T05:34:50.337Z,74.78
2018-01-19T05:35:50.808Z,74.76
2018-01-19T05:36:51.272Z,74.74
2018-01-19T05:37:51.742Z,74.69
2018-01-19T05:38:52.209Z,74.66
2018-01-19T05:39:52.674Z,74.61
2018-01-19T05:40:53.144Z,74.61
2018-01-19T05:41:53.613Z,74.56
2018-01-19T05:42:54.075Z,74.54
2018-01-19T05:43:54.551Z,74.54
2018-01-19T05:46:55.952Z,74.41
2018-01-19T05:47:56.421Z,74.39
2018-01-19T05:48:56.887Z,74.32
2018-01-19T05:50:57.822Z,74.24
2018-01-19T05:51:58.286Z,74.17
2018-01-19T05:52:58.753Z,74.14
2018-01-19T05:53:59.220Z,74.10
2018-01-19T05:54:59.688Z,74.10
2018-01-19T05:56:00.163Z,74.07
2018-01-19T05:57:00.628Z,74.19
2018-01-19T05:58:01.091Z,74.16
2018-01-19T05:59:01.616Z,74.19
2018-01-19T06:00:02.032Z,74.16
2018-01-19T06:01:02.495Z,74.14
2018-01-19T06:02:02.963Z,74.26
2018-01-19T06:03:03.430Z,74.16
2018-01-19T06:04:03.898Z,74.11
2018-01-19T06:05:04.365Z,74.11
2018-01-19T06:06:04.833Z,74.21
2018-01-19T06:07:05.301Z,74.19
2018-01-19T06:08:05.768Z,74.30
2018-01-19T06:09:06.236Z,74.47
2018-01-19T06:10:06.710Z,74.50
2018-01-19T06:12:07.646Z,74.64
2018-01-19T06:13:08.111Z,74.71
2018-01-19T06:15:09.046Z,74.92
2018-01-19T06:16:09.514Z,74.92
2018-01-19T06:17:09.980Z,75.04
2018-01-19T06:18:10.448Z,75.19
2018-01-19T06:19:10.913Z,75.23
2018-01-19T06:20:11.385Z,75.38
2018-01-19T06:21:11.852Z,75.49
2018-01-19T06:22:12.321Z,75.45
2018-01-19T06:23:12.786Z,75.43
2018-01-19T06:24:13.257Z,75.49
2018-01-19T06:25:13.723Z,75.45
2018-01-19T06:26:14.189Z,75.40
2018-01-19T06:27:14.657Z,75.37
2018-01-19T06:28:15.127Z,75.56
2018-01-19T06:29:15.591Z,75.42
2018-01-19T06:30:16.055Z,75.49
2018-01-19T06:31:16.528Z,75.51
2018-01-19T06:32:16.995Z,75.52
2018-01-19T06:33:17.462Z,75.56
2018-01-19T06:34:17.925Z,75.56
2018-01-19T06:36:18.865Z,75.49
2018-01-19T06:38:19.800Z,75.54
2018-01-19T06:39:20.268Z,75.56
2018-01-19T06:40:20.736Z,75.78
2018-01-19T06:41:21.201Z,76.10
2018-01-19T06:42:21.671Z,75.96
2018-01-19T06:44:34.035Z,75.96
2018-01-19T06:45:23.072Z,75.98
2018-01-19T06:46:23.538Z,75.94
2018-01-19T06:47:24.007Z,75.94
2018-01-19T06:48:24.479Z,75.98
2018-01-19T06:49:24.938Z,76.10
2018-01-19T06:50:25.411Z,76.01
2018-01-19T06:51:25.877Z,75.96
2018-01-19T06:52:26.347Z,75.98
2018-01-19T06:53:26.816Z,75.94
2018-01-19T06:54:27.339Z,75.96
2018-01-19T06:55:27.749Z,75.86
2018-01-19T06:56:28.210Z,75.94
2018-01-19T06:57:28.681Z,76.06
2018-01-19T06:58:29.149Z,76.12
2018-01-19T06:59:29.616Z,75.93
2018-01-19T07:00:30.079Z,75.91
2018-01-19T07:01:30.550Z,75.81
2018-01-19T07:02:31.020Z,75.82
2018-01-19T07:03:31.485Z,76.00
2018-01-19T07:04:31.952Z,75.95
2018-01-19T07:05:32.419Z,75.93
2018-01-19T07:06:32.887Z,75.96
2018-01-19T07:07:33.354Z,75.95
2018-01-19T07:08:33.823Z,75.96
2018-01-19T07:09:34.288Z,76.12
2018-01-19T07:10:34.757Z,76.40
2018-01-19T07:11:35.223Z,76.33
2018-01-19T07:12:35.691Z,76.43
2018-01-19T07:13:36.158Z,76.52
2018-01-19T07:15:37.092Z,76.69
2018-01-19T07:17:38.029Z,76.38
2018-01-19T07:18:38.496Z,76.59
2018-01-19T07:19:38.963Z,76.76
2018-01-19T07:20:39.430Z,77.01
2018-01-19T07:21:39.898Z,77.11
2018-01-19T07:22:40.364Z,77.02
2018-01-19T07:23:40.832Z,76.90
2018-01-19T07:24:41.293Z,76.80
2018-01-19T07:26:42.232Z,76.52
2018-01-19T07:27:42.703Z,76.52
2018-01-19T07:28:43.164Z,76.38
2018-01-19T07:29:43.635Z,76.31
2018-01-19T07:30:44.102Z,76.48
2018-01-19T07:31:44.571Z,76.50
2018-01-19T07:32:45.037Z,76.52
2018-01-19T07:33:45.504Z,76.42
2018-01-19T07:34:45.971Z,76.38
2018-01-19T07:35:46.436Z,76.49
2018-01-19T07:36:46.905Z,76.61
2018-01-19T07:37:47.374Z,76.63
2018-01-19T07:38:47.839Z,76.61
2018-01-19T07:39:48.303Z,76.70
2018-01-19T07:40:48.774Z,76.63
2018-01-19T07:41:49.246Z,76.66
2018-01-19T07:42:49.705Z,76.56
2018-01-19T07:43:50.176Z,76.75
2018-01-19T07:44:50.643Z,76.66
2018-01-19T07:45:51.111Z,76.78
2018-01-19T07:46:51.577Z,76.84
2018-01-19T07:48:52.513Z,76.73
2018-01-19T07:49:52.983Z,76.82
2018-01-19T07:50:53.448Z,76.70
2018-01-19T07:51:53.912Z,76.70
2018-01-19T07:52:54.384Z,76.66
2018-01-19T07:53:54.852Z,76.49
2018-01-19T07:54:55.316Z,76.65
2018-01-19T07:55:55.786Z,76.65
2018-01-19T07:58:57.182Z,76.70
2018-01-19T07:59:57.655Z,76.70
2018-01-19T08:00:58.121Z,76.68
2018-01-19T08:01:58.589Z,76.61
2018-01-19T08:03:59.524Z,76.58
2018-01-19T08:05:00.048Z,76.70
2018-01-19T08:06:00.458Z,76.68
2018-01-19T08:07:00.925Z,76.51
2018-01-19T08:08:01.392Z,76.54
2018-01-19T08:09:01.861Z,76.61
2018-01-19T08:10:02.323Z,76.65
2018-01-19T08:12:03.261Z,76.77
2018-01-19T08:13:03.729Z,76.70
2018-01-19T08:14:04.196Z,76.72
2018-01-19T08:15:04.662Z,76.88
2018-01-19T08:16:05.125Z,76.86
2018-01-19T08:17:05.599Z,76.94
2018-01-19T08:18:06.065Z,76.89
2018-01-19T08:19:06.531Z,76.82
2018-01-19T08:20:06.993Z,76.84
2018-01-19T08:21:07.461Z,76.77
2018-01-19T08:22:07.933Z,76.84
2018-01-19T08:23:08.402Z,76.77
2018-01-19T08:24:08.869Z,76.84
2018-01-19T08:25:21.124Z,76.84
2018-01-19T08:26:09.805Z,76.75
2018-01-19T08:27:10.272Z,76.60
2018-01-19T08:28:10.741Z,76.61
2018-01-19T08:29:11.203Z,76.75
2018-01-19T08:30:11.681Z,76.91
2018-01-19T08:31:12.140Z,77.05
2018-01-19T08:32:12.608Z,76.94
2018-01-19T08:33:13.067Z,76.98
2018-01-19T08:34:13.542Z,77.03
2018-01-19T08:35:14.010Z,76.96
2018-01-19T08:36:14.477Z,76.82
2018-01-19T08:37:14.936Z,76.78
2018-01-19T08:38:15.410Z,76.61
2018-01-19T08:39:15.877Z,76.57
2018-01-19T08:40:16.347Z,76.43
2018-01-19T08:41:16.812Z,76.50
2018-01-19T08:42:17.278Z,76.33
2018-01-19T08:43:17.745Z,76.40
2018-01-19T08:44:18.210Z,76.52
2018-01-19T08:45:18.677Z,76.53
2018-01-19T08:46:19.142Z,76.53
2018-01-19T08:47:19.611Z,76.57
2018-01-19T08:48:20.078Z,76.55
2018-01-19T08:49:20.545Z,76.55
2018-01-19T08:50:21.008Z,76.48
2018-01-19T08:51:21.480Z,76.39
2018-01-19T08:52:21.947Z,76.15
2018-01-19T08:54:22.880Z,76.06
2018-01-19T08:55:23.363Z,76.10
2018-01-19T08:56:23.816Z,75.87
2018-01-19T08:57:24.285Z,75.77
2018-01-19T08:58:24.744Z,75.72
2018-01-19T08:59:25.222Z,75.67
2018-01-19T09:00:25.685Z,75.73
2018-01-19T09:01:26.151Z,75.63
2018-01-19T09:02:26.619Z,75.56
2018-01-19T09:03:27.088Z,75.51
2018-01-19T09:04:27.559Z,75.49
2018-01-19T09:05:28.016Z,75.44
2018-01-19T09:06:28.489Z,75.44
2018-01-19T09:07:28.954Z,75.35
2018-01-19T09:08:29.422Z,75.16
2018-01-19T09:09:29.886Z,75.07
2018-01-19T09:10:30.357Z,75.06
2018-01-19T09:11:30.824Z,74.97
2018-01-19T09:12:31.291Z,74.95
2018-01-19T09:13:31.758Z,74.88
2018-01-19T09:14:32.225Z,74.90
2018-01-19T09:15:32.687Z,74.78
2018-01-19T09:16:33.160Z,74.86
2018-01-19T09:17:33.626Z,74.79
2018-01-19T09:18:34.092Z,74.77
2018-01-19T09:19:34.562Z,74.60
2018-01-19T09:20:35.032Z,74.50
2018-01-19T09:21:35.496Z,74.41
2018-01-19T09:22:35.961Z,74.30
2018-01-19T09:23:36.426Z,74.22
2018-01-19T09:24:36.902Z,74.40
2018-01-19T09:25:37.364Z,74.57
2018-01-19T09:26:37.829Z,74.40
2018-01-19T09:27:38.301Z,74.43
2018-01-19T09:28:38.765Z,74.36
2018-01-19T09:29:39.232Z,74.43
2018-01-19T09:30:39.699Z,74.48
2018-01-19T09:31:40.167Z,74.43
2018-01-19T09:32:40.631Z,74.53
2018-01-19T09:33:41.103Z,74.42
2018-01-19T09:34:41.570Z,74.30
2018-01-19T09:35:42.036Z,74.23
2018-01-19T09:37:42.970Z,74.01
2018-01-19T09:38:43.450Z,73.97
2018-01-19T09:39:43.901Z,73.88
2018-01-19T09:40:44.374Z,73.73
2018-01-19T09:42:45.301Z,73.49
2018-01-19T09:43:45.774Z,73.35
2018-01-19T09:44:46.243Z,73.27
2018-01-19T09:45:46.705Z,73.10
2018-01-19T09:46:47.177Z,73.01
2018-01-19T09:48:48.112Z,73.16
2018-01-19T09:49:48.578Z,73.11
2018-01-19T09:51:01.236Z,73.21
2018-01-19T09:51:49.513Z,73.38
2018-01-19T09:52:49.977Z,73.38
2018-01-19T09:54:50.916Z,73.48
2018-01-19T09:56:51.848Z,73.51
2018-01-19T09:57:52.317Z,73.63
2018-01-19T09:58:52.787Z,73.57
2018-01-19T09:59:53.253Z,73.44
2018-01-19T10:00:53.722Z,73.37
2018-01-19T10:01:54.187Z,73.42
2018-01-19T10:03:55.117Z,73.28
2018-01-19T10:04:55.592Z,73.29
2018-01-19T10:05:56.058Z,73.29
2018-01-19T10:06:56.579Z,73.19
2018-01-19T10:07:56.988Z,73.05
2018-01-19T10:08:57.462Z,72.98
2018-01-19T10:09:57.928Z,72.95
2018-01-19T10:10:58.395Z,72.88
2018-01-19T10:11:58.861Z,72.76
2018-01-19T10:12:59.331Z,72.66
2018-01-19T10:13:59.799Z,72.59
2018-01-19T10:15:00.260Z,72.55
2018-01-19T10:16:12.265Z,72.42
2018-01-19T10:17:01.201Z,72.28
2018-01-19T10:18:01.670Z,72.18
2018-01-19T10:19:02.139Z,72.13
2018-01-19T10:20:02.604Z,72.01
2018-01-19T10:21:03.072Z,71.88
2018-01-19T10:22:03.539Z,71.81
2018-01-19T10:24:04.475Z,71.96
2018-01-19T10:25:04.941Z,71.89
2018-01-19T10:26:05.407Z,71.89
2018-01-19T10:27:05.876Z,71.84
2018-01-19T10:28:06.344Z,71.75
2018-01-19T10:30:07.280Z,71.70
2018-01-19T10:32:08.215Z,71.58
2018-01-19T10:33:08.679Z,71.53
2018-01-19T10:34:09.145Z,71.51
2018-01-19T10:35:09.613Z,71.58
2018-01-19T10:36:10.130Z,71.51
2018-01-19T10:37:10.556Z,71.51
2018-01-19T10:38:11.024Z,71.46
2018-01-19T10:40:11.957Z,71.39
2018-01-19T10:41:12.420Z,71.39
2018-01-19T10:42:12.892Z,71.44
2018-01-19T10:43:13.355Z,71.49
2018-01-19T10:44:13.824Z,71.47
2018-01-19T10:45:14.289Z,71.42
2018-01-19T10:46:14.763Z,71.37
2018-01-19T10:47:15.224Z,71.32
2018-01-19T10:49:16.209Z,71.37
2018-01-19T10:50:16.635Z,71.30
2018-01-19T10:51:17.096Z,71.28
2018-01-19T10:52:17.565Z,71.25
2018-01-19T10:53:18.037Z,71.16
2018-01-19T10:55:18.966Z,70.98
2018-01-19T10:56:19.434Z,70.91
2018-01-19T10:57:19.902Z,70.89
2018-01-19T10:58:20.372Z,70.79
2018-01-19T10:59:20.839Z,70.69
2018-01-19T11:00:21.307Z,70.62
2018-01-19T11:01:21.854Z,70.65
2018-01-19T11:02:22.242Z,70.60
2018-01-19T11:03:22.709Z,70.57
2018-01-19T11:04:23.182Z,70.52
2018-01-19T11:05:23.646Z,70.50
2018-01-19T11:06:24.169Z,70.45
2018-01-19T11:07:24.585Z,70.36
2018-01-19T11:11:26.457Z,70.19
2018-01-19T11:12:26.925Z,70.16
2018-01-19T11:14:27.864Z,70.21
2018-01-19T11:15:28.328Z,70.24
2018-01-19T11:16:28.797Z,70.24
2018-01-19T11:17:29.311Z,70.26
2018-01-19T11:18:29.735Z,70.18
2018-01-19T11:19:30.205Z,70.11
2018-01-19T11:20:30.671Z,70.03
2018-01-19T11:21:31.189Z,70.11
2018-01-19T11:23:32.073Z,70.16
2018-01-19T11:24:32.546Z,70.01
2018-01-19T11:25:33.010Z,69.98
2018-01-19T11:27:33.944Z,69.93
2018-01-19T11:28:34.411Z,69.85
2018-01-19T11:29:34.875Z,69.78
2018-01-19T11:30:35.410Z,69.75
2018-01-19T11:31:35.816Z,69.65
2018-01-19T11:32:36.284Z,69.52
2018-01-19T11:33:36.750Z,69.42
2018-01-19T11:34:37.214Z,69.34
2018-01-19T11:35:37.687Z,69.22
2018-01-19T11:37:38.623Z,69.14
2018-01-19T11:38:39.092Z,68.98
2018-01-19T11:39:39.559Z,68.96
2018-01-19T11:40:40.026Z,68.83
2018-01-19T11:41:40.496Z,68.78
2018-01-19T11:42:52.346Z,68.70
2018-01-19T11:43:41.430Z,68.65
2018-01-19T11:44:41.897Z,68.57
2018-01-19T11:45:42.367Z,68.52
2018-01-19T11:46:42.829Z,68.47
2018-01-19T11:48:43.769Z,68.36
2018-01-19T11:49:44.238Z,68.28
2018-01-19T11:50:44.704Z,68.32
2018-01-19T11:51:45.172Z,68.29
2018-01-19T11:52:45.642Z,68.24
2018-01-19T11:53:46.110Z,68.26
2018-01-19T11:54:46.571Z,68.21
2018-01-19T11:55:47.045Z,68.21
2018-01-19T11:56:47.511Z,68.21
2018-01-19T11:57:48.031Z,68.26
2018-01-19T11:58:48.444Z,68.26
2018-01-19T11:59:48.915Z,68.24
2018-01-19T12:00:49.384Z,68.16
2018-01-19T12:01:49.853Z,68.11
2018-01-19T12:03:50.788Z,67.98
2018-01-19T12:04:51.256Z,68.01
2018-01-19T12:05:51.725Z,67.99
2018-01-19T12:06:52.193Z,67.99
2018-01-19T12:07:52.654Z,67.94
2018-01-19T12:08:53.128Z,67.89
2018-01-19T12:09:53.596Z,67.99
2018-01-19T12:10:54.065Z,67.94
2018-01-19T12:12:55.000Z,67.84
2018-01-19T12:13:55.471Z,67.82
2018-01-19T12:14:55.939Z,67.83
2018-01-19T12:15:56.407Z,67.80
2018-01-19T12:16:56.868Z,67.75
2018-01-19T12:17:57.342Z,67.78
2018-01-19T12:18:57.811Z,67.78
2018-01-19T12:19:58.276Z,67.76
2018-01-19T12:20:58.746Z,67.81
2018-01-19T12:21:59.214Z,67.77
2018-01-19T12:23:11.373Z,67.72
2018-01-19T12:24:00.147Z,67.72
2018-01-19T12:25:00.618Z,67.75
2018-01-19T12:26:01.088Z,67.78
2018-01-19T12:28:02.019Z,67.76
2018-01-19T12:29:02.493Z,67.81
2018-01-19T12:30:02.962Z,67.74
2018-01-19T12:31:03.429Z,67.71
2018-01-19T12:32:03.895Z,67.74
2018-01-19T12:34:04.834Z,67.77
2018-01-19T12:35:05.298Z,67.78
2018-01-19T12:36:05.769Z,67.81
2018-01-19T12:37:06.241Z,67.86
2018-01-19T12:38:06.706Z,67.86
2018-01-19T12:39:07.175Z,67.84
2018-01-19T12:40:07.637Z,67.84
2018-01-19T12:41:08.112Z,67.79
2018-01-19T12:42:08.579Z,67.79
2018-01-19T12:43:09.048Z,67.77
2018-01-19T12:45:09.985Z,67.54
2018-01-19T12:46:10.452Z,67.49
2018-01-19T12:47:10.917Z,67.44
2018-01-19T12:48:11.389Z,67.36
2018-01-19T12:49:11.859Z,67.31
2018-01-19T12:50:12.325Z,67.31
2018-01-19T12:51:12.789Z,67.15
2018-01-19T12:52:13.261Z,67.13
2018-01-19T12:53:13.731Z,67.07
2018-01-19T12:54:14.199Z,67.02
2018-01-19T12:55:14.670Z,66.97
2018-01-19T12:56:15.137Z,66.92
2018-01-19T12:57:15.605Z,66.86
2018-01-19T12:58:16.073Z,66.91
2018-01-19T12:59:16.543Z,66.86
2018-01-19T13:00:17.008Z,66.83
2018-01-19T13:01:17.479Z,66.83
2018-01-19T13:02:17.946Z,66.86
2018-01-19T13:03:18.415Z,66.86
2018-01-19T13:04:18.882Z,66.88
2018-01-19T13:05:19.346Z,66.86
2018-01-19T13:06:19.815Z,66.89
2018-01-19T13:07:20.289Z,66.83
2018-01-19T13:08:20.756Z,66.86
2018-01-19T13:09:21.225Z,66.89
2018-01-19T13:11:22.161Z,66.81
2018-01-19T13:12:22.624Z,66.81
2018-01-19T13:14:23.568Z,66.84
2018-01-19T13:15:24.035Z,66.87
2018-01-19T13:16:24.501Z,66.87
2018-01-19T13:17:24.973Z,66.90
2018-01-19T13:18:25.440Z,66.90
2018-01-19T13:19:25.910Z,66.90
2018-01-19T13:20:26.383Z,66.91
2018-01-19T13:21:26.845Z,66.93
2018-01-19T13:22:27.315Z,66.91
2018-01-19T13:23:27.779Z,66.94
2018-01-19T13:24:28.252Z,66.88
2018-01-19T13:26:29.189Z,66.89
2018-01-19T13:27:29.656Z,66.86
2018-01-19T13:28:30.129Z,66.89
2018-01-19T13:29:30.594Z,66.82
2018-01-19T13:30:31.061Z,66.77
2018-01-19T13:32:31.996Z,66.74
2018-01-19T13:33:32.467Z,66.69
2018-01-19T13:34:32.932Z,66.67
2018-01-19T13:35:33.400Z,66.72
2018-01-19T13:36:33.868Z,66.67
2018-01-19T13:37:34.338Z,66.70
2018-01-19T13:38:34.806Z,66.73
2018-01-19T13:39:35.275Z,66.73
2018-01-19T13:40:35.744Z,66.70
2018-01-19T13:41:36.212Z,66.73
2018-01-19T13:42:36.685Z,66.83
2018-01-19T13:43:37.150Z,66.89
2018-01-19T13:44:37.622Z,66.91
2018-01-19T13:45:38.088Z,66.99
2018-01-19T13:46:38.557Z,66.89
2018-01-19T13:47:39.027Z,66.94
2018-01-19T13:48:39.492Z,66.93
2018-01-19T13:49:39.961Z,66.91
2018-01-19T13:50:40.429Z,67.03
2018-01-19T13:51:40.898Z,67.04
2018-01-19T13:52:41.366Z,67.04
2018-01-19T13:53:41.836Z,67.06
2018-01-19T13:54:42.304Z,66.93
2018-01-19T13:55:42.773Z,66.88
2018-01-19T13:56:43.239Z,66.85
2018-01-19T13:57:43.710Z,66.87
2018-01-19T13:58:44.177Z,66.82
2018-01-19T13:59:44.646Z,66.82
2018-01-19T14:00:45.120Z,66.85
2018-01-19T14:01:45.590Z,66.79
2018-01-19T14:02:46.054Z,66.76
2018-01-19T14:03:46.523Z,66.76
2018-01-19T14:04:46.988Z,66.65
2018-01-19T14:05:47.460Z,66.60
2018-01-19T14:06:47.926Z,66.60
2018-01-19T14:07:48.395Z,66.51
2018-01-19T14:08:48.862Z,66.44
2018-01-19T14:09:49.331Z,66.43
2018-01-19T14:10:49.799Z,66.38
2018-01-19T14:11:50.267Z,66.38
2018-01-19T14:12:50.735Z,66.30
2018-01-19T14:13:51.206Z,66.30
2018-01-19T14:14:51.674Z,66.34